Time;durP1;ratioP1;P1;durP2;ratioP2;P2;SDS_P1;SDS_P2;PMS_P1;PMS_P2;Temp;Humidity;BMP_temperature;BMP_pressure;BME280_temperature;BME280_humidity;BME280_pressure;Samples;Min_cycle;Max_cycle;Signal;HPM_P1;HPM_P2
2022/03/27 00:00:25;;;;;;;41.83;26.50;;;7.70;99.90;;;;;;5013615;28;20058;-70
2022/03/27 00:02:51;;;;;;;50.08;27.30;;;7.60;99.90;;;;;;5017268;28;20399;-71
2022/03/27 00:05:17;;;;;;;49.30;26.83;;;7.70;99.90;;;;;;5017115;28;20054;-71
2022/03/27 00:07:42;;;;;;;53.53;26.75;;;7.70;99.90;;;;;;5009345;28;20043;-71
2022/03/27 00:10:09;;;;;;;45.50;25.73;;;7.70;99.90;;;;;;5006766;28;20045;-71
2022/03/27 00:12:34;;;;;;;45.28;26.25;;;7.70;99.90;;;;;;5021633;28;20068;-71
2022/03/27 00:15:01;;;;;;;41.58;23.90;;;7.70;99.90;;;;;;5021225;28;20503;-71
2022/03/27 00:17:29;;;;;;;46.08;25.42;;;7.70;99.90;;;;;;5009019;28;20122;-70
2022/03/27 00:19:57;;;;;;;49.65;26.42;;;7.70;99.90;;;;;;5007599;28;20057;-71
2022/03/27 00:22:23;;;;;;;55.95;26.48;;;7.60;99.90;;;;;;5010890;28;20046;-71
2022/03/27 00:24:48;;;;;;;46.70;24.40;;;7.60;99.90;;;;;;5021934;28;20086;-71
2022/03/27 00:27:14;;;;;;;39.33;22.52;;;7.60;99.90;;;;;;5015684;28;20041;-70
2022/03/27 00:29:40;;;;;;;48.95;24.85;;;7.60;99.90;;;;;;5015191;28;20099;-71
2022/03/27 00:32:06;;;;;;;42.53;24.10;;;7.60;99.90;;;;;;5003316;28;20450;-70
2022/03/27 00:34:32;;;;;;;46.85;24.60;;;7.60;99.90;;;;;;5006364;28;20050;-70
2022/03/27 00:36:58;;;;;;;50.13;27.73;;;7.60;99.90;;;;;;5016307;28;20398;-71
2022/03/27 00:39:23;;;;;;;44.85;24.63;;;7.60;99.90;;;;;;5011112;28;20128;-71
2022/03/27 00:41:51;;;;;;;48.88;26.50;;;7.60;99.90;;;;;;5011041;28;20125;-71
2022/03/27 00:44:17;;;;;;;48.22;26.58;;;7.60;99.90;;;;;;5022485;28;20064;-71
2022/03/27 00:46:43;;;;;;;43.50;25.60;;;7.50;99.90;;;;;;5007961;28;20587;-71
2022/03/27 00:49:09;;;;;;;57.97;30.00;;;7.50;99.90;;;;;;5020384;28;20080;-71
2022/03/27 00:51:35;;;;;;;57.15;29.20;;;7.50;99.90;;;;;;5013088;28;20049;-71
2022/03/27 00:54:01;;;;;;;48.20;27.15;;;7.50;99.90;;;;;;5006571;28;20072;-70
2022/03/27 00:56:26;;;;;;;60.88;31.02;;;7.50;99.90;;;;;;5015401;28;20085;-70
2022/03/27 00:58:52;;;;;;;57.13;30.17;;;7.40;99.90;;;;;;5020956;28;20057;-71
2022/03/27 01:01:35;;;;;;;53.60;28.27;;;7.40;99.90;;;;;;5008132;28;20084;-70
2022/03/27 01:04:03;;;;;;;52.28;27.58;;;7.40;99.90;;;;;;5006168;28;21365;-70
2022/03/27 01:06:34;;;;;;;49.00;27.38;;;7.40;99.90;;;;;;5012558;28;20042;-71
2022/03/27 01:11:46;;;;;;;51.83;26.83;;;7.40;99.90;;;;;;5023630;28;20137;-70
2022/03/27 01:14:13;;;;;;;49.92;26.90;;;7.40;99.90;;;;;;5025160;28;20132;-71
2022/03/27 01:16:47;;;;;;;43.45;25.30;;;7.30;99.90;;;;;;5024128;28;20053;-70
2022/03/27 01:19:15;;;;;;;44.28;23.15;;;7.30;99.90;;;;;;5012059;28;20042;-70
2022/03/27 01:21:43;;;;;;;39.50;22.75;;;7.30;99.90;;;;;;5017134;28;20045;-70
2022/03/27 01:24:09;;;;;;;46.72;24.95;;;7.20;99.90;;;;;;5019472;28;20048;-71
2022/03/27 01:26:37;;;;;;;41.17;22.48;;;7.20;99.90;;;;;;5018429;28;20560;-70
2022/03/27 01:29:04;;;;;;;36.38;20.00;;;7.20;99.90;;;;;;4999287;28;20136;-71
2022/03/27 01:31:31;;;;;;;36.95;20.02;;;7.10;99.90;;;;;;5015310;28;20588;-70
2022/03/27 01:33:56;;;;;;;33.45;17.13;;;7.10;99.90;;;;;;5019151;28;20068;-70
2022/03/27 01:36:24;;;;;;;29.80;17.25;;;7.00;99.90;;;;;;5018334;28;20450;-70
2022/03/27 01:38:52;;;;;;;32.40;18.60;;;7.00;99.90;;;;;;5024437;28;20050;-71
2022/03/27 01:41:17;;;;;;;25.23;16.27;;;7.00;99.90;;;;;;5020454;28;20042;-70
2022/03/27 01:43:43;;;;;;;30.50;16.90;;;6.90;99.90;;;;;;5011715;28;20069;-70
2022/03/27 01:46:09;;;;;;;30.00;17.30;;;6.90;99.90;;;;;;5011652;28;20115;-70
2022/03/27 01:48:35;;;;;;;29.92;15.32;;;6.90;99.90;;;;;;5011038;28;20061;-70
2022/03/27 01:51:02;;;;;;;27.08;15.00;;;6.80;99.90;;;;;;5024802;28;20088;-70
2022/03/27 01:53:28;;;;;;;26.08;15.23;;;6.80;99.90;;;;;;5007263;28;20045;-70
2022/03/27 01:55:54;;;;;;;31.13;15.27;;;6.70;99.90;;;;;;5028183;28;20050;-70
2022/03/27 01:58:20;;;;;;;26.90;14.68;;;6.70;99.90;;;;;;5004163;28;20042;-70
2022/03/27 02:00:46;;;;;;;22.30;13.93;;;6.60;99.90;;;;;;5012363;28;20077;-70
2022/03/27 02:03:11;;;;;;;23.55;14.63;;;6.60;99.90;;;;;;5018655;28;20080;-70
2022/03/27 02:05:37;;;;;;;28.02;14.55;;;6.50;99.90;;;;;;5025187;28;20604;-70
2022/03/27 02:08:03;;;;;;;24.10;14.07;;;6.50;99.90;;;;;;5018516;28;20045;-70
2022/03/27 02:10:29;;;;;;;19.95;13.65;;;6.40;99.90;;;;;;5011700;28;20046;-70
2022/03/27 02:12:55;;;;;;;19.73;13.55;;;6.40;99.90;;;;;;5010448;28;20111;-70
2022/03/27 02:15:21;;;;;;;27.83;14.85;;;6.40;99.90;;;;;;5024373;28;20045;-70
2022/03/27 02:17:47;;;;;;;24.85;13.55;;;6.30;99.90;;;;;;5015096;28;20041;-70
2022/03/27 02:20:13;;;;;;;19.50;12.55;;;6.20;99.90;;;;;;5015713;28;20430;-70
2022/03/27 02:22:38;;;;;;;19.33;12.98;;;6.20;99.90;;;;;;5029215;28;20434;-70
2022/03/27 02:25:05;;;;;;;19.75;11.27;;;6.20;99.90;;;;;;5016355;28;20045;-70
2022/03/27 02:27:30;;;;;;;21.33;12.63;;;6.10;99.90;;;;;;5010926;28;20046;-70
2022/03/27 02:29:57;;;;;;;25.20;14.63;;;6.10;99.90;;;;;;5023394;28;20057;-70
2022/03/27 02:32:23;;;;;;;22.40;13.98;;;6.10;99.90;;;;;;5018981;28;20137;-70
2022/03/27 02:34:48;;;;;;;33.42;16.35;;;6.00;99.90;;;;;;5011504;28;20125;-71
2022/03/27 02:37:14;;;;;;;22.30;14.90;;;6.00;99.90;;;;;;5018766;28;20041;-71
2022/03/27 02:39:43;;;;;;;27.75;14.90;;;6.00;99.90;;;;;;4999145;28;20046;-70
2022/03/27 02:42:09;;;;;;;27.13;14.52;;;6.00;99.90;;;;;;5010563;28;20614;-70
2022/03/27 02:44:34;;;;;;;30.05;16.02;;;6.00;99.90;;;;;;5011992;28;20062;-70
2022/03/27 02:47:00;;;;;;;27.30;14.98;;;5.90;99.90;;;;;;5018088;28;20051;-71
2022/03/27 02:49:27;;;;;;;24.63;14.85;;;5.90;99.90;;;;;;5023895;28;20669;-70
2022/03/27 02:51:52;;;;;;;28.83;16.42;;;5.80;99.90;;;;;;5009996;28;20057;-70
2022/03/27 02:54:18;;;;;;;30.42;15.00;;;5.80;99.90;;;;;;5010253;28;20088;-70
2022/03/27 02:56:44;;;;;;;31.25;17.20;;;5.80;99.90;;;;;;5012503;28;20045;-71
2022/03/27 02:59:09;;;;;;;26.25;16.25;;;5.70;99.90;;;;;;4993193;28;20081;-70
2022/03/27 03:01:36;;;;;;;33.25;15.90;;;5.70;99.90;;;;;;5021229;28;20045;-70
2022/03/27 03:04:02;;;;;;;26.40;15.82;;;5.70;99.90;;;;;;5017478;28;20042;-71
2022/03/27 03:06:30;;;;;;;25.80;14.68;;;5.60;99.90;;;;;;4999492;28;20088;-70
2022/03/27 03:08:56;;;;;;;;;;;5.60;99.90;;;;;;5017453;28;20890;-70
2022/03/27 03:11:22;;;;;;;26.05;15.38;;;5.60;99.90;;;;;;5009939;28;20298;-70
2022/03/27 03:13:50;;;;;;;32.13;17.02;;;5.60;99.90;;;;;;5023314;28;20115;-70
2022/03/27 03:16:16;;;;;;;25.52;15.30;;;5.50;99.90;;;;;;5005541;28;20103;-70
2022/03/27 03:18:44;;;;;;;25.35;15.27;;;5.50;99.90;;;;;;5011597;28;20458;-70
2022/03/27 03:21:09;;;;;;;24.20;14.67;;;5.50;99.90;;;;;;5016473;28;20046;-70
2022/03/27 03:23:36;;;;;;;41.50;17.83;;;5.40;99.90;;;;;;5015559;28;20091;-70
2022/03/27 03:26:02;;;;;;;31.30;16.35;;;5.40;99.90;;;;;;5010034;28;20050;-70
2022/03/27 03:28:28;;;;;;;32.53;14.52;;;5.40;99.90;;;;;;5011424;28;20131;-70
2022/03/27 03:30:54;;;;;;;32.45;14.95;;;5.40;99.90;;;;;;5001743;28;20041;-71
2022/03/27 03:33:20;;;;;;;27.45;15.35;;;5.40;99.90;;;;;;5009966;28;20052;-70
2022/03/27 03:35:46;;;;;;;27.65;14.93;;;5.40;99.90;;;;;;5009244;28;20046;-70
2022/03/27 03:38:12;;;;;;;26.27;15.88;;;5.30;99.90;;;;;;5008521;28;20060;-71
2022/03/27 03:40:40;;;;;;;30.02;15.80;;;5.30;99.90;;;;;;5009545;28;20058;-71
2022/03/27 03:43:06;;;;;;;35.40;14.32;;;5.40;99.90;;;;;;5010711;28;20671;-70
2022/03/27 03:45:32;;;;;;;30.45;15.23;;;5.40;99.90;;;;;;5010889;28;20046;-70
2022/03/27 03:47:59;;;;;;;35.42;15.90;;;5.40;99.90;;;;;;5010475;28;20057;-70
2022/03/27 03:50:26;;;;;;;26.95;14.18;;;5.40;99.90;;;;;;5008333;28;20050;-70
2022/03/27 03:52:52;;;;;;;32.38;15.45;;;5.40;99.90;;;;;;5022865;28;20049;-70
2022/03/27 03:55:18;;;;;;;32.30;16.58;;;5.50;99.90;;;;;;5007706;28;20196;-70
2022/03/27 03:57:44;;;;;;;37.75;16.13;;;5.40;99.90;;;;;;5011517;28;20049;-71
2022/03/27 04:00:10;;;;;;;31.25;15.43;;;5.50;99.90;;;;;;5002756;28;20095;-70
2022/03/27 04:02:36;;;;;;;36.67;15.68;;;5.50;99.90;;;;;;5009833;28;20124;-71
2022/03/27 04:05:02;;;;;;;32.95;14.40;;;5.50;99.90;;;;;;5009233;28;20160;-70
2022/03/27 04:07:28;;;;;;;29.75;15.27;;;5.60;99.90;;;;;;5021530;28;20045;-70
2022/03/27 04:09:53;;;;;;;24.80;12.43;;;5.60;99.90;;;;;;5015667;28;20052;-70
2022/03/27 04:12:19;;;;;;;29.25;14.68;;;5.60;99.90;;;;;;5011372;28;20045;-71
2022/03/27 04:14:45;;;;;;;30.77;14.07;;;5.60;99.90;;;;;;5019263;28;20499;-70
2022/03/27 04:17:11;;;;;;;27.58;14.68;;;5.60;99.90;;;;;;5012065;28;20103;-71
2022/03/27 04:19:37;;;;;;;33.25;15.43;;;5.70;99.90;;;;;;5013884;28;20045;-71
2022/03/27 04:22:04;;;;;;;27.42;13.07;;;5.70;99.90;;;;;;5015932;28;20057;-70
2022/03/27 04:24:29;;;;;;;33.85;14.85;;;5.70;99.90;;;;;;5022522;28;20128;-70
2022/03/27 04:26:55;;;;;;;34.30;15.05;;;5.70;99.90;;;;;;5008654;28;20125;-71
2022/03/27 04:29:21;;;;;;;41.00;15.05;;;5.80;99.90;;;;;;5008997;28;20593;-71
2022/03/27 04:31:47;;;;;;;37.58;13.98;;;5.80;99.90;;;;;;5009173;28;20049;-72
2022/03/27 04:34:12;;;;;;;36.00;14.40;;;5.80;99.90;;;;;;5009887;28;20058;-71
2022/03/27 04:36:38;;;;;;;43.22;15.75;;;5.80;99.90;;;;;;5008295;28;20038;-72
2022/03/27 04:39:05;;;;;;;51.33;14.50;;;5.80;99.90;;;;;;5024997;28;20053;-72
2022/03/27 04:41:31;;;;;;;39.28;13.48;;;5.90;99.90;;;;;;5016856;28;20045;-72
2022/03/27 04:43:57;;;;;;;52.28;13.98;;;5.90;99.90;;;;;;5022281;28;20438;-73
2022/03/27 04:46:23;;;;;;;53.78;13.52;;;5.90;99.90;;;;;;5014066;28;20092;-72
2022/03/27 04:48:49;;;;;;;55.35;17.33;;;5.90;99.90;;;;;;5012980;28;20057;-71
2022/03/27 04:51:16;;;;;;;50.17;14.50;;;6.00;99.90;;;;;;5020699;28;20061;-71
2022/03/27 04:53:41;;;;;;;45.83;14.82;;;6.00;99.90;;;;;;5008497;28;20053;-71
2022/03/27 04:56:08;;;;;;;50.95;14.68;;;6.10;99.90;;;;;;5014498;28;20048;-71
2022/03/27 04:58:35;;;;;;;42.90;14.25;;;6.10;99.90;;;;;;5014710;28;20455;-71
2022/03/27 05:01:00;;;;;;;52.80;15.18;;;6.10;99.90;;;;;;5015804;28;20060;-72
2022/03/27 05:03:26;;;;;;;58.28;15.48;;;6.10;99.90;;;;;;5009401;28;20133;-70
2022/03/27 05:05:52;;;;;;;66.35;16.80;;;6.10;99.90;;;;;;5008329;28;20402;-71
2022/03/27 05:08:18;;;;;;;53.67;16.17;;;6.10;99.90;;;;;;5007952;28;20081;-71
2022/03/27 05:10:44;;;;;;;62.50;14.57;;;6.10;99.90;;;;;;5004004;28;20038;-71
2022/03/27 05:13:09;;;;;;;48.97;14.48;;;6.10;99.90;;;;;;5006801;28;20050;-71
2022/03/27 05:15:36;;;;;;;49.40;16.10;;;6.10;99.90;;;;;;5016815;28;20084;-71
2022/03/27 05:18:02;;;;;;;46.05;16.83;;;6.10;99.90;;;;;;5015630;28;20037;-71
2022/03/27 05:20:29;;;;;;;82.95;18.55;;;6.20;99.90;;;;;;5007157;28;20052;-71
2022/03/27 05:22:55;;;;;;;64.45;18.08;;;6.10;99.90;;;;;;5020176;28;20073;-71
2022/03/27 05:25:21;;;;;;;57.42;16.67;;;6.20;99.90;;;;;;5008229;28;20042;-71
2022/03/27 05:27:53;;;;;;;62.25;16.48;;;6.20;99.90;;;;;;5004756;28;20104;-71
2022/03/27 05:30:23;;;;;;;62.33;15.98;;;6.20;99.90;;;;;;5004735;28;20074;-71
2022/03/27 05:32:50;;;;;;;51.25;13.65;;;6.20;99.90;;;;;;5005931;28;20158;-71
2022/03/27 05:35:16;;;;;;;73.65;16.67;;;6.20;99.90;;;;;;5000856;28;20566;-70
2022/03/27 05:37:43;;;;;;;62.25;15.95;;;6.20;99.90;;;;;;5012596;28;20045;-71
2022/03/27 05:40:14;;;;;;;67.68;15.05;;;6.20;99.90;;;;;;5013265;28;20119;-71
2022/03/27 05:42:40;;;;;;;69.13;15.85;;;6.20;99.90;;;;;;5006490;28;20049;-71
2022/03/27 05:45:08;;;;;;;59.05;15.00;;;6.20;99.90;;;;;;5019058;28;20041;-71
2022/03/27 05:47:34;;;;;;;58.70;15.07;;;6.20;99.90;;;;;;5015151;28;20081;-70
2022/03/27 05:50:00;;;;;;;53.08;15.77;;;6.30;99.90;;;;;;5010096;28;20057;-71
2022/03/27 05:52:26;;;;;;;64.85;15.82;;;6.30;99.90;;;;;;5018088;28;20037;-70
2022/03/27 05:54:52;;;;;;;67.00;15.68;;;6.30;99.90;;;;;;5020483;28;20275;-70
2022/03/27 05:57:18;;;;;;;68.68;18.20;;;6.40;99.90;;;;;;5019638;28;20045;-71
2022/03/27 05:59:47;;;;;;;64.55;16.10;;;6.40;99.90;;;;;;5013331;28;20049;-71
2022/03/27 06:02:14;;;;;;;53.17;14.57;;;6.40;99.90;;;;;;5007635;28;20522;-71
2022/03/27 06:04:41;;;;;;;72.95;17.58;;;6.40;99.90;;;;;;5008458;28;20030;-71
2022/03/27 06:07:10;;;;;;;64.93;17.25;;;6.50;99.90;;;;;;5022294;28;20045;-71
2022/03/27 06:09:36;;;;;;;66.10;18.63;;;6.40;99.90;;;;;;4999957;28;20399;-72
2022/03/27 06:12:03;;;;;;;62.00;18.67;;;6.50;99.90;;;;;;5007782;28;20053;-72
2022/03/27 06:14:30;;;;;;;61.50;19.17;;;6.50;99.90;;;;;;5013230;28;20060;-72
2022/03/27 06:16:56;;;;;;;77.47;19.23;;;6.50;99.90;;;;;;5009320;28;20180;-70
2022/03/27 06:19:23;;;;;;;72.85;20.45;;;6.50;99.90;;;;;;5018414;28;20526;-71
2022/03/27 06:21:49;;;;;;;75.70;21.58;;;6.50;99.90;;;;;;5024182;28;20522;-71
2022/03/27 06:24:16;;;;;;;69.07;20.27;;;6.50;99.90;;;;;;5017079;28;20088;-71
2022/03/27 06:26:42;;;;;;;51.35;18.60;;;6.50;99.90;;;;;;5017617;28;20065;-71
2022/03/27 06:29:09;;;;;;;52.50;19.33;;;6.60;99.90;;;;;;5010050;28;20068;-69
2022/03/27 06:31:38;;;;;;;49.38;18.67;;;6.60;99.90;;;;;;5012521;28;20124;-70
2022/03/27 06:34:06;;;;;;;61.50;19.55;;;6.70;99.90;;;;;;5022262;28;20125;-70
2022/03/27 06:36:34;;;;;;;58.67;21.52;;;6.80;99.90;;;;;;5014719;28;20049;-70
2022/03/27 06:39:02;;;;;;;79.22;21.30;;;6.90;99.90;;;;;;5023737;28;20500;-71
2022/03/27 06:41:29;;;;;;;62.40;21.08;;;6.90;99.90;;;;;;5005587;28;20467;-70
2022/03/27 06:43:55;;;;;;;68.97;22.10;;;6.90;99.90;;;;;;5023097;28;20553;-70
2022/03/27 06:46:21;;;;;;;64.45;21.88;;;6.90;99.90;;;;;;5009253;28;20404;-71
2022/03/27 06:48:52;;;;;;;56.85;20.25;;;7.00;99.90;;;;;;5010304;28;20483;-70
2022/03/27 06:51:19;;;;;;;67.07;20.60;;;7.00;99.90;;;;;;5024052;28;20084;-70
2022/03/27 06:53:47;;;;;;;65.78;20.95;;;7.10;99.90;;;;;;5010214;28;20090;-70
2022/03/27 06:56:13;;;;;;;50.85;19.08;;;7.10;99.90;;;;;;5008920;28;20515;-71
2022/03/27 06:58:39;;;;;;;59.33;19.92;;;7.10;99.90;;;;;;5017989;28;20068;-70
2022/03/27 07:03:53;;;;;;;63.78;22.55;;;7.20;99.90;;;;;;5007612;28;20064;-70
2022/03/27 07:06:19;;;;;;;47.83;17.20;;;7.20;99.90;;;;;;4992601;28;20547;-70
2022/03/27 07:08:46;;;;;;;48.53;18.85;;;7.20;99.90;;;;;;5010910;28;20049;-70
2022/03/27 07:11:13;;;;;;;84.07;20.75;;;7.20;99.90;;;;;;5006789;28;20068;-70
2022/03/27 07:13:41;;;;;;;39.80;17.75;;;7.20;99.90;;;;;;5008452;28;20088;-70
2022/03/27 07:16:07;;;;;;;;;;;7.20;99.90;;;;;;5009300;28;20507;-70
2022/03/27 07:18:33;;;;;;;65.15;19.17;;;7.20;99.90;;;;;;5012481;28;19978;-70
2022/03/27 07:20:59;;;;;;;60.58;19.67;;;7.20;99.90;;;;;;5024750;28;20052;-71
2022/03/27 07:23:25;;;;;;;56.58;18.98;;;7.10;99.90;;;;;;5017002;28;20120;-70
2022/03/27 07:25:53;;;;;;;72.68;20.38;;;7.30;99.90;;;;;;5004046;28;20054;-71
2022/03/27 07:28:20;;;;;;;61.28;19.40;;;7.30;99.90;;;;;;5002317;28;20566;-71
2022/03/27 07:30:46;;;;;;;71.53;19.13;;;7.30;99.90;;;;;;5009863;28;20569;-71
2022/03/27 07:33:13;;;;;;;82.43;21.35;;;7.30;99.90;;;;;;5019945;28;20499;-70
2022/03/27 07:35:40;;;;;;;111.15;21.98;;;7.30;99.90;;;;;;5014233;28;20136;-70
2022/03/27 07:38:06;;;;;;;78.35;21.10;;;7.20;99.90;;;;;;5006885;28;20128;-71
2022/03/27 07:40:33;;;;;;;80.43;21.63;;;7.20;99.90;;;;;;5008011;28;20053;-69
2022/03/27 07:42:59;;;;;;;76.00;22.90;;;7.20;99.90;;;;;;5018086;28;20088;-70
2022/03/27 07:45:28;;;;;;;63.65;21.02;;;7.30;99.90;;;;;;5014226;28;20080;-70
2022/03/27 07:47:54;;;;;;;;;;;7.30;99.90;;;;;;5009530;28;20895;-70
2022/03/27 07:50:22;;;;;;;68.35;24.05;;;7.40;99.90;;;;;;5008680;28;19952;-70
2022/03/27 07:52:48;;;;;;;95.60;27.20;;;7.40;99.90;;;;;;5009438;28;20038;-70
2022/03/27 07:55:15;;;;;;;63.50;23.90;;;7.50;99.90;;;;;;5013336;28;20045;-70
2022/03/27 07:57:42;;;;;;;86.68;27.63;;;7.50;99.90;;;;;;5017288;28;20121;-70
2022/03/27 08:00:10;;;;;;;77.10;23.55;;;7.50;99.90;;;;;;5009457;28;20077;-69
2022/03/27 08:02:40;;;;;;;89.07;26.05;;;7.60;99.90;;;;;;5009894;28;20049;-70
2022/03/27 08:05:07;;;;;;;106.45;25.30;;;7.50;99.90;;;;;;5008797;28;20053;-70
2022/03/27 08:07:32;;;;;;;76.38;25.23;;;7.60;99.90;;;;;;5008156;28;20653;-71
2022/03/27 08:10:00;;;;;;;75.93;24.70;;;7.60;99.90;;;;;;5013637;28;20046;-71
2022/03/27 08:12:27;;;;;;;77.20;23.25;;;7.70;99.90;;;;;;5002638;28;20092;-71
2022/03/27 08:14:52;;;;;;;74.03;25.15;;;7.90;99.90;;;;;;5009731;28;20041;-68
2022/03/27 08:17:20;;;;;;;79.85;24.80;;;8.00;99.90;;;;;;5011730;28;20903;-70
2022/03/27 08:19:47;;;;;;;77.53;24.75;;;8.00;99.90;;;;;;5012111;28;20049;-68
2022/03/27 08:22:13;;;;;;;81.55;27.77;;;8.20;99.90;;;;;;5018837;28;20411;-70
2022/03/27 08:24:39;;;;;;;71.78;25.52;;;8.40;99.90;;;;;;5009334;28;20060;-70
2022/03/27 08:27:07;;;;;;;91.97;26.42;;;8.60;99.90;;;;;;5018474;28;20088;-70
2022/03/27 08:29:38;;;;;;;77.70;28.55;;;8.80;99.90;;;;;;5006464;28;20095;-70
2022/03/27 08:32:09;;;;;;;75.15;28.63;;;9.00;99.90;;;;;;4997008;28;20443;-70
2022/03/27 08:34:37;;;;;;;74.95;29.52;;;9.20;99.90;;;;;;5020831;28;20054;-70
2022/03/27 08:37:05;;;;;;;78.55;30.88;;;9.40;99.90;;;;;;5018374;28;20084;-69
2022/03/27 08:39:32;;;;;;;89.68;32.30;;;9.60;99.90;;;;;;5014716;28;20053;-69
2022/03/27 08:41:58;;;;;;;78.75;33.08;;;9.70;99.90;;;;;;5001481;28;20471;-69
2022/03/27 08:44:26;;;;;;;85.53;34.10;;;9.90;99.90;;;;;;5021520;28;20124;-69
2022/03/27 08:46:53;;;;;;;108.93;33.28;;;10.00;99.90;;;;;;5014362;28;20049;-70
2022/03/27 08:49:46;;;;;;;71.43;30.90;;;10.10;99.90;;;;;;5013073;28;20056;-70
2022/03/27 08:52:17;;;;;;;78.50;30.70;;;10.10;99.90;;;;;;5014780;28;20303;-72
2022/03/27 08:54:59;;;;;;;71.20;29.13;;;10.10;99.90;;;;;;5024215;28;20111;-71
2022/03/27 08:57:37;;;;;;;69.03;30.73;;;10.30;99.90;;;;;;5009644;28;20045;-69
2022/03/27 09:00:04;;;;;;;65.38;30.70;;;10.30;99.90;;;;;;5010777;28;20045;-71
2022/03/27 09:02:30;;;;;;;98.68;31.77;;;10.50;99.90;;;;;;5009840;28;20491;-70
2022/03/27 09:04:57;;;;;;;89.78;30.13;;;10.90;99.90;;;;;;5013204;28;20048;-70
2022/03/27 09:07:29;;;;;;;75.28;26.67;;;11.20;99.90;;;;;;5011731;28;20053;-71
2022/03/27 09:09:58;;;;;;;65.03;26.45;;;11.40;99.90;;;;;;5002750;28;20104;-72
2022/03/27 09:12:24;;;;;;;70.22;28.20;;;11.30;99.90;;;;;;4990870;28;20050;-72
2022/03/27 09:14:50;;;;;;;67.50;24.90;;;11.20;99.90;;;;;;5005176;28;20057;-72
2022/03/27 09:17:16;;;;;;;91.38;27.67;;;11.20;99.90;;;;;;5010299;28;20045;-72
2022/03/27 09:19:50;;;;;;;80.50;29.15;;;11.20;99.90;;;;;;5019953;28;20140;-72
2022/03/27 09:22:22;;;;;;;87.10;30.98;;;11.20;99.90;;;;;;5009421;28;20038;-71
2022/03/27 09:24:59;;;;;;;76.05;26.70;;;11.50;99.90;;;;;;5015757;28;20079;-71
2022/03/27 09:27:33;;;;;;;65.45;25.23;;;11.40;99.90;;;;;;5003253;28;20141;-72
2022/03/27 09:30:07;;;;;;;66.25;26.67;;;11.20;99.90;;;;;;5014784;28;20081;-71
2022/03/27 09:32:35;;;;;;;57.22;24.15;;;11.30;99.90;;;;;;5011742;28;20057;-72
2022/03/27 09:35:07;;;;;;;70.80;25.23;;;11.70;99.90;;;;;;4998181;28;20046;-70
2022/03/27 09:37:40;;;;;;;64.40;24.55;;;12.10;99.90;;;;;;5007464;28;20046;-69
2022/03/27 09:40:08;;;;;;;75.43;22.88;;;11.80;99.90;;;;;;5010286;28;20121;-69
2022/03/27 09:42:38;;;;;;;65.68;23.83;;;11.70;99.90;;;;;;5010412;28;20056;-69
2022/03/27 09:45:17;;;;;;;50.80;20.10;;;11.70;99.90;;;;;;5008549;28;20443;-68
2022/03/27 09:47:48;;;;;;;63.53;23.75;;;12.10;99.90;;;;;;5016525;28;20085;-69
2022/03/27 09:50:35;;;;;;;58.20;23.23;;;12.30;99.90;;;;;;5011791;28;20442;-69
2022/03/27 09:53:20;;;;;;;55.33;20.17;;;12.20;99.90;;;;;;5007324;28;20091;-70
2022/03/27 09:55:53;;;;;;;46.70;20.48;;;11.90;99.90;;;;;;5011593;28;20146;-69
2022/03/27 09:58:36;;;;;;;57.70;20.70;;;12.00;99.90;;;;;;5018708;28;20498;-70
2022/03/27 10:01:08;;;;;;;63.20;20.63;;;11.90;99.90;;;;;;5014795;28;20690;-70
2022/03/27 10:03:36;;;;;;;59.45;21.20;;;12.20;99.90;;;;;;5017484;28;20046;-69
2022/03/27 10:06:37;;;;;;;56.20;18.92;;;12.30;99.90;;;;;;5009320;28;20104;-70
2022/03/27 10:09:06;;;;;;;55.22;16.73;;;12.50;99.90;;;;;;5009182;28;20049;-70
2022/03/27 10:11:32;;;;;;;;;;;12.50;99.90;;;;;;5010574;28;20140;-70
2022/03/27 10:13:58;;;;;;;47.05;17.63;;;12.40;99.90;;;;;;5024701;28;20029;-70
2022/03/27 10:16:36;;;;;;;33.60;16.67;;;12.40;99.90;;;;;;5008287;28;20120;-70
2022/03/27 10:19:03;;;;;;;44.55;18.23;;;12.50;99.90;;;;;;5023287;28;20526;-69
2022/03/27 10:21:29;;;;;;;61.33;19.55;;;12.50;99.90;;;;;;5009984;28;20050;-69
2022/03/27 10:24:06;;;;;;;45.17;18.75;;;12.60;99.90;;;;;;5024916;28;20037;-69
2022/03/27 10:26:33;;;;;;;59.75;19.40;;;12.80;99.90;;;;;;5011231;28;20038;-71
2022/03/27 10:29:01;;;;;;;55.37;18.03;;;13.00;99.90;;;;;;5000409;28;20582;-68
2022/03/27 10:31:27;;;;;;;54.90;16.75;;;13.10;99.90;;;;;;5012085;28;20380;-70
2022/03/27 10:33:55;;;;;;;51.30;16.17;;;13.30;99.90;;;;;;5009065;28;20052;-70
2022/03/27 10:36:29;;;;;;;45.67;14.27;;;13.40;99.90;;;;;;5010167;28;20053;-70
2022/03/27 10:38:58;;;;;;;52.55;14.55;;;13.60;99.90;;;;;;5009718;28;20640;-70
2022/03/27 10:41:33;;;;;;;52.42;15.88;;;13.60;99.90;;;;;;5012562;28;20049;-69
2022/03/27 10:44:19;;;;;;;46.78;16.02;;;13.60;94.40;;;;;;5013716;28;20042;-70
2022/03/27 10:47:11;;;;;;;55.70;18.25;;;13.50;95.60;;;;;;5007135;28;20078;-70
2022/03/27 10:49:36;;;;;;;59.33;18.45;;;13.60;94.60;;;;;;5007203;28;20058;-69
2022/03/27 10:52:06;;;;;;;49.20;17.45;;;13.60;98.00;;;;;;5006164;28;20054;-71
2022/03/27 10:54:52;;;;;;;55.92;16.67;;;13.50;95.50;;;;;;5008458;28;20041;-69
2022/03/27 10:57:39;;;;;;;51.67;19.98;;;13.60;96.70;;;;;;4984916;28;20045;-71
2022/03/27 11:00:07;;;;;;;56.85;19.33;;;13.70;96.30;;;;;;5020600;28;20050;-69
2022/03/27 11:02:50;;;;;;;;;;;13.90;99.20;;;;;;5009295;28;20064;-69
2022/03/27 11:05:31;;;;;;;44.60;15.82;;;14.20;94.10;;;;;;5006485;28;20072;-70
2022/03/27 11:08:18;;;;;;;44.42;15.00;;;14.40;91.70;;;;;;5013262;28;20053;-70
2022/03/27 11:10:49;;;;;;;32.85;11.75;;;14.30;81.90;;;;;;5001050;28;20046;-68
2022/03/27 11:13:28;;;;;;;29.35;13.05;;;14.30;85.10;;;;;;5008088;28;20053;-70
2022/03/27 11:16:02;;;;;;;;;;;14.40;76.30;;;;;;5002036;28;20089;-70
2022/03/27 11:18:43;;;;;;;45.17;15.65;;;14.30;73.80;;;;;;5011622;28;20435;-69
2022/03/27 11:21:13;;;;;;;40.08;11.73;;;14.30;76.70;;;;;;5006600;28;20515;-69
2022/03/27 11:23:40;;;;;;;30.48;11.77;;;14.30;77.80;;;;;;4996710;28;20050;-69
2022/03/27 11:26:21;;;;;;;41.88;14.55;;;14.50;74.70;;;;;;5009404;28;20054;-69
2022/03/27 11:28:54;;;;;;;54.08;14.35;;;14.50;73.80;;;;;;4989761;28;20498;-69
2022/03/27 11:31:30;;;;;;;42.03;13.27;;;14.50;74.40;;;;;;5009965;28;20085;-69
2022/03/27 11:34:15;;;;;;;34.72;10.25;;;14.30;72.20;;;;;;5009256;28;20084;-69
2022/03/27 11:36:42;;;;;;;27.30;10.30;;;14.30;66.90;;;;;;5008765;28;20054;-69
2022/03/27 11:39:32;;;;;;;31.23;9.13;;;14.30;71.20;;;;;;5001400;28;20042;-69
2022/03/27 11:42:34;;;;;;;42.78;12.40;;;14.30;69.10;;;;;;5007601;28;20069;-69
2022/03/27 11:45:11;;;;;;;36.33;12.65;;;14.60;69.90;;;;;;4987056;28;20058;-70
2022/03/27 11:47:40;;;;;;;37.45;10.90;;;14.80;68.30;;;;;;5019908;28;20053;-69
2022/03/27 11:50:07;;;;;;;30.08;11.98;;;14.80;68.90;;;;;;5002090;28;20065;-68
2022/03/27 11:52:34;;;;;;;32.15;11.52;;;14.80;68.00;;;;;;5002701;28;20125;-70
2022/03/27 11:55:09;;;;;;;45.85;12.50;;;14.80;69.10;;;;;;5011205;28;20120;-69
2022/03/27 11:57:46;;;;;;;36.50;11.25;;;15.10;68.40;;;;;;5015329;28;20801;-69
2022/03/27 12:00:14;;;;;;;38.70;12.52;;;15.00;67.50;;;;;;5019625;28;20046;-69
2022/03/27 12:02:43;;;;;;;50.38;12.02;;;15.10;66.40;;;;;;5023276;28;20840;-68
2022/03/27 12:05:10;;;;;;;35.13;11.50;;;14.90;66.80;;;;;;5009350;28;20479;-69
2022/03/27 12:07:53;;;;;;;48.10;12.25;;;14.90;66.70;;;;;;5009117;28;20403;-69
2022/03/27 12:10:19;;;;;;;32.08;10.40;;;15.00;64.50;;;;;;5009292;28;20091;-69
2022/03/27 12:12:59;;;;;;;38.08;12.00;;;15.00;65.00;;;;;;5021413;28;20046;-69
2022/03/27 12:15:37;;;;;;;40.05;10.98;;;15.40;67.00;;;;;;5001504;28;20526;-69
2022/03/27 12:18:04;;;;;;;32.75;11.32;;;15.40;62.80;;;;;;5013458;28;20048;-69
2022/03/27 12:20:41;;;;;;;30.30;10.93;;;15.40;64.50;;;;;;5003729;28;20050;-72
2022/03/27 12:23:21;;;;;;;30.27;10.68;;;15.40;62.20;;;;;;5008683;28;20519;-73
2022/03/27 12:29:43;;;;;;;27.48;10.25;;;15.60;59.10;;;;;;5003099;28;20475;-73
2022/03/27 12:32:27;;;;;;;24.73;10.02;;;15.50;59.00;;;;;;4997215;28;20435;-73
2022/03/27 12:34:55;;;;;;;30.58;11.02;;;15.40;60.10;;;;;;5009288;28;20129;-72
2022/03/27 12:37:25;;;;;;;;;;;15.40;62.00;;;;;;5008217;28;20072;-71
2022/03/27 12:39:50;;;;;;;37.90;10.38;;;15.40;60.00;;;;;;5013057;28;19960;-73
2022/03/27 12:42:35;;;;;;;38.90;9.55;;;15.50;62.50;;;;;;5013300;28;20070;-70
2022/03/27 12:45:08;;;;;;;40.97;11.10;;;15.50;57.70;;;;;;5009014;28;20041;-70
2022/03/27 12:47:39;;;;;;;40.00;10.88;;;15.70;60.40;;;;;;5003861;28;20136;-70
2022/03/27 12:50:10;;;;;;;41.00;9.68;;;16.10;61.20;;;;;;5008107;28;20038;-70
2022/03/27 12:52:47;;;;;;;29.98;11.90;;;16.10;57.70;;;;;;5006812;28;20046;-70